Time;durP1;ratioP1;P1;durP2;ratioP2;P2;SDS_P1;SDS_P2;PMS_P1;PMS_P2;Temp;Humidity;BMP_temperature;BMP_pressure;BME280_temperature;BME280_humidity;BME280_pressure;Samples;Min_cycle;Max_cycle;Signal;HPM_P1;HPM_P2
2022/05/02 00:00:45;;;;;;;11.45;7.45;;;12.10;57.90;;;;;;5132007;27;20019;-64
2022/05/02 00:03:12;;;;;;;12.35;7.47;;;12.10;57.90;;;;;;5125140;27;20095;-65
2022/05/02 00:05:38;;;;;;;11.45;7.25;;;12.10;57.90;;;;;;5132077;27;20534;-64
2022/05/02 00:08:04;;;;;;;12.30;7.90;;;12.10;57.90;;;;;;5127446;27;20421;-64
2022/05/02 00:10:30;;;;;;;11.23;7.30;;;12.10;57.90;;;;;;5127968;27;20056;-64
2022/05/02 00:12:57;;;;;;;12.88;7.47;;;12.00;57.90;;;;;;5133115;27;20474;-64
2022/05/02 00:15:22;;;;;;;11.48;7.32;;;12.00;57.90;;;;;;5123648;27;20412;-64
2022/05/02 00:17:57;;;;;;;10.75;6.82;;;12.10;58.00;;;;;;5127098;27;20034;-64
2022/05/02 00:20:37;;;;;;;11.52;7.07;;;12.10;57.90;;;;;;5126751;27;20146;-64
2022/05/02 00:23:09;;;;;;;10.77;7.10;;;12.10;58.00;;;;;;5131930;27;20027;-64
2022/05/02 00:25:35;;;;;;;12.48;7.55;;;12.00;58.00;;;;;;5122945;27;20043;-64
2022/05/02 00:28:02;;;;;;;10.52;7.43;;;12.00;58.60;;;;;;5125688;27;20036;-64
2022/05/02 00:30:28;;;;;;;12.57;7.82;;;12.00;58.00;;;;;;5125011;27;20043;-64
2022/05/02 00:32:55;;;;;;;11.85;6.95;;;12.00;58.20;;;;;;5114960;27;20033;-64
2022/05/02 00:35:21;;;;;;;13.00;7.43;;;11.90;58.10;;;;;;5133013;27;20084;-64
2022/05/02 00:37:47;;;;;;;10.77;7.07;;;11.90;58.10;;;;;;5127282;27;20028;-64
2022/05/02 00:40:15;;;;;;;12.23;7.47;;;11.90;58.20;;;;;;5115703;27;20039;-64
2022/05/02 00:42:45;;;;;;;11.70;7.28;;;11.90;58.20;;;;;;5128001;27;20024;-65
2022/05/02 00:45:14;;;;;;;11.13;7.32;;;11.90;58.30;;;;;;5125873;27;20031;-65
2022/05/02 00:47:40;;;;;;;11.23;6.97;;;11.90;58.40;;;;;;5130147;27;20049;-65
2022/05/02 00:50:08;;;;;;;11.38;7.15;;;11.80;58.40;;;;;;5126809;27;20481;-65
2022/05/02 00:52:34;;;;;;;12.15;7.65;;;11.90;58.50;;;;;;5123130;27;20096;-65
2022/05/02 00:55:02;;;;;;;11.80;7.70;;;11.80;58.40;;;;;;5124003;27;20111;-65
2022/05/02 00:57:30;;;;;;;11.75;7.55;;;11.90;58.50;;;;;;5134348;27;20063;-65
2022/05/02 00:59:55;;;;;;;12.40;7.82;;;11.80;58.40;;;;;;5128602;27;20053;-65
2022/05/02 01:02:21;;;;;;;13.90;8.23;;;11.80;58.40;;;;;;5119929;27;20120;-65
2022/05/02 01:04:46;;;;;;;12.25;7.50;;;11.80;58.40;;;;;;5129364;27;20146;-66
2022/05/02 01:07:12;;;;;;;12.60;7.82;;;11.80;58.50;;;;;;5128484;28;20452;-65
2022/05/02 01:09:44;;;;;;;10.63;7.22;;;11.80;58.60;;;;;;5133339;27;20052;-65
2022/05/02 01:12:15;;;;;;;11.60;7.85;;;11.80;58.60;;;;;;5117466;28;20035;-65
2022/05/02 01:14:42;;;;;;;12.68;8.00;;;11.80;58.60;;;;;;5121191;27;20023;-65
2022/05/02 01:17:09;;;;;;;14.27;7.90;;;11.70;58.60;;;;;;5133745;27;20059;-65
2022/05/02 01:19:35;;;;;;;12.13;7.70;;;11.70;58.70;;;;;;5120699;27;20019;-66
2022/05/02 01:22:02;;;;;;;12.65;7.60;;;11.70;58.70;;;;;;5120492;27;20102;-64
2022/05/02 01:24:48;;;;;;;12.63;8.27;;;11.70;58.80;;;;;;5118515;27;20243;-64
2022/05/02 01:27:14;;;;;;;11.73;7.63;;;11.70;58.80;;;;;;5132585;27;20405;-64
2022/05/02 01:29:42;;;;;;;11.70;7.90;;;11.70;58.80;;;;;;5118729;27;20056;-64
2022/05/02 01:32:11;;;;;;;11.93;8.13;;;11.70;58.80;;;;;;5134436;27;20039;-64
2022/05/02 01:34:40;;;;;;;13.73;8.20;;;11.70;58.90;;;;;;5121144;27;20080;-64
2022/05/02 01:37:07;;;;;;;13.73;7.90;;;11.70;58.90;;;;;;5122463;27;20055;-64
2022/05/02 01:39:33;;;;;;;12.50;7.95;;;11.70;59.00;;;;;;5137008;27;21512;-64
2022/05/02 01:42:03;;;;;;;12.40;8.18;;;11.70;59.00;;;;;;5123478;27;20131;-64
2022/05/02 01:44:29;;;;;;;13.30;8.05;;;11.60;59.00;;;;;;5133514;27;20024;-64
2022/05/02 01:46:56;;;;;;;11.88;8.15;;;11.60;59.00;;;;;;5127388;27;20026;-64
2022/05/02 01:49:22;;;;;;;11.15;7.80;;;11.70;59.00;;;;;;5137198;27;20123;-64
2022/05/02 01:51:48;;;;;;;12.48;7.88;;;11.70;59.00;;;;;;5125243;27;20051;-64
2022/05/02 01:54:15;;;;;;;13.35;8.75;;;11.70;59.00;;;;;;5136312;27;20031;-64
2022/05/02 01:56:40;;;;;;;11.68;7.88;;;11.70;59.00;;;;;;5125520;27;20020;-64
2022/05/02 01:59:06;;;;;;;12.32;7.95;;;11.70;59.00;;;;;;5122708;27;20069;-65
2022/05/02 02:01:32;;;;;;;12.27;8.55;;;11.70;59.10;;;;;;5127316;27;20432;-64
2022/05/02 02:05:48;;;;;;;12.00;8.43;;;11.60;59.10;;;;;;5135678;27;20143;-64
2022/05/02 02:06:47;;;;;;;14.75;8.52;;;11.60;59.10;;;;;;5126663;27;20088;-64
2022/05/02 02:09:13;;;;;;;13.80;8.70;;;11.60;59.00;;;;;;5121333;27;20028;-64
2022/05/02 02:11:38;;;;;;;12.68;8.75;;;11.60;59.00;;;;;;5126321;27;20425;-64
2022/05/02 02:14:04;;;;;;;12.20;8.32;;;11.60;59.10;;;;;;5134482;27;20023;-64
2022/05/02 02:16:29;;;;;;;11.60;8.00;;;11.60;59.10;;;;;;5137036;27;20019;-64
2022/05/02 02:18:55;;;;;;;13.05;8.07;;;11.60;59.00;;;;;;5128114;27;20027;-64
2022/05/02 02:21:21;;;;;;;12.40;8.30;;;11.60;59.00;;;;;;5132192;27;20028;-64
2022/05/02 02:23:46;;;;;;;13.95;8.85;;;11.60;58.90;;;;;;5132578;27;20321;-64
2022/05/02 02:26:12;;;;;;;11.68;8.25;;;11.60;58.90;;;;;;5132890;27;20330;-64
2022/05/02 02:28:39;;;;;;;13.30;8.80;;;11.60;58.90;;;;;;5100978;28;20038;-64
2022/05/02 02:31:04;;;;;;;12.48;8.85;;;11.60;59.00;;;;;;5126125;27;20384;-64
2022/05/02 02:33:30;;;;;;;12.35;8.50;;;11.50;59.10;;;;;;5128273;27;20066;-64
2022/05/02 02:35:56;;;;;;;12.13;8.75;;;11.50;59.10;;;;;;5122279;27;20031;-64
2022/05/02 02:38:22;;;;;;;12.27;8.43;;;11.50;59.10;;;;;;5128487;27;20028;-64
2022/05/02 02:40:48;;;;;;;14.18;8.45;;;11.50;59.30;;;;;;5116421;28;20364;-64
2022/05/02 02:43:13;;;;;;;12.77;7.75;;;11.50;59.40;;;;;;5118686;27;20406;-64
2022/05/02 02:45:39;;;;;;;14.02;9.10;;;11.40;59.50;;;;;;5116306;28;20039;-64
2022/05/02 02:48:05;;;;;;;13.55;9.00;;;11.40;59.60;;;;;;5132347;27;20038;-64
2022/05/02 02:50:31;;;;;;;12.77;8.80;;;11.30;59.70;;;;;;5138072;27;20348;-64
2022/05/02 02:52:57;;;;;;;13.45;9.27;;;11.30;59.80;;;;;;5122802;27;20020;-64
2022/05/02 02:55:22;;;;;;;13.93;9.05;;;11.20;59.80;;;;;;5132444;27;20344;-64
2022/05/02 02:57:48;;;;;;;12.75;9.00;;;11.20;60.00;;;;;;5123522;27;20386;-64
2022/05/02 03:00:14;;;;;;;14.82;9.00;;;11.20;60.00;;;;;;5132372;27;20463;-64
2022/05/02 03:02:41;;;;;;;15.40;8.95;;;11.20;60.10;;;;;;5128123;27;20109;-64
2022/05/02 03:07:52;;;;;;;13.95;8.63;;;11.10;60.30;;;;;;5124262;27;20370;-64
2022/05/02 03:10:18;;;;;;;12.60;8.13;;;11.00;60.30;;;;;;5126244;27;20039;-64
2022/05/02 03:12:43;;;;;;;14.88;9.98;;;11.00;60.40;;;;;;5128758;27;20027;-64
2022/05/02 03:15:09;;;;;;;13.35;9.07;;;11.00;60.50;;;;;;5127971;27;20352;-64
2022/05/02 03:17:35;;;;;;;13.82;9.57;;;11.00;60.60;;;;;;5128666;27;20039;-64
2022/05/02 03:20:00;;;;;;;13.88;9.07;;;10.90;60.60;;;;;;5130513;27;20139;-64
2022/05/02 03:22:26;;;;;;;13.48;8.55;;;10.90;60.60;;;;;;5126544;27;20026;-64
2022/05/02 03:24:51;;;;;;;14.93;9.32;;;10.90;60.70;;;;;;5119165;27;20449;-64
2022/05/02 03:27:17;;;;;;;13.32;9.80;;;10.80;60.80;;;;;;5121515;27;20026;-64
2022/05/02 03:29:43;;;;;;;14.20;9.43;;;10.80;60.90;;;;;;5122247;27;20050;-64
2022/05/02 03:32:08;;;;;;;14.35;8.73;;;10.80;61.00;;;;;;5117962;27;20421;-64
2022/05/02 03:34:34;;;;;;;14.43;9.77;;;10.80;61.10;;;;;;5115565;27;20518;-64
2022/05/02 03:37:00;;;;;;;16.90;9.13;;;10.70;61.10;;;;;;5116451;27;20026;-64
2022/05/02 03:39:25;;;;;;;15.93;9.35;;;10.70;61.10;;;;;;5128659;27;20466;-64
2022/05/02 03:41:52;;;;;;;12.88;8.80;;;10.70;61.30;;;;;;5119527;27;20111;-64
2022/05/02 03:44:18;;;;;;;15.85;8.90;;;10.70;61.30;;;;;;5121334;27;20035;-64
2022/05/02 03:46:44;;;;;;;12.65;8.40;;;10.60;61.40;;;;;;5117989;27;20337;-64
2022/05/02 03:49:09;;;;;;;14.00;9.30;;;10.60;61.40;;;;;;5135281;27;20027;-65
2022/05/02 03:51:35;;;;;;;13.23;8.48;;;10.60;61.50;;;;;;5135024;27;20405;-64
2022/05/02 03:54:00;;;;;;;14.35;9.45;;;10.60;61.60;;;;;;5121232;27;20368;-64
2022/05/02 03:56:26;;;;;;;15.15;10.32;;;10.60;61.60;;;;;;5115819;28;20042;-64
2022/05/02 03:58:52;;;;;;;13.63;9.13;;;10.50;61.60;;;;;;5123004;27;20055;-64
2022/05/02 04:01:18;;;;;;;13.75;8.82;;;10.50;61.70;;;;;;5125421;27;20066;-64
2022/05/02 04:03:44;;;;;;;14.65;8.93;;;10.50;61.70;;;;;;5128906;27;20035;-64
2022/05/02 04:06:09;;;;;;;13.95;9.32;;;10.50;61.80;;;;;;5116104;27;20027;-64
2022/05/02 04:08:35;;;;;;;13.35;9.32;;;10.50;61.90;;;;;;5125469;27;20108;-64
2022/05/02 04:11:01;;;;;;;14.48;9.90;;;10.50;61.90;;;;;;5129497;27;20039;-64
2022/05/02 04:13:27;;;;;;;14.23;9.30;;;10.40;61.90;;;;;;5132276;27;20039;-64
2022/05/02 04:15:53;;;;;;;13.68;9.35;;;10.40;62.00;;;;;;5123132;27;20703;-64
2022/05/02 04:18:19;;;;;;;15.23;9.27;;;10.40;62.10;;;;;;5131210;27;20027;-64
2022/05/02 04:20:44;;;;;;;14.55;9.23;;;10.40;62.10;;;;;;5099271;28;20051;-64
2022/05/02 04:23:10;;;;;;;14.32;9.15;;;10.40;62.10;;;;;;5117617;27;20451;-65
2022/05/02 04:25:36;;;;;;;17.60;9.57;;;10.40;62.10;;;;;;5123028;27;20401;-64
2022/05/02 04:28:01;;;;;;;15.32;9.13;;;10.40;62.20;;;;;;5123606;27;20352;-64
2022/05/02 04:30:28;;;;;;;13.02;8.98;;;10.40;62.20;;;;;;5118610;27;20054;-63
2022/05/02 04:32:53;;;;;;;13.63;9.70;;;10.40;62.30;;;;;;5118855;27;20043;-64
2022/05/02 04:35:19;;;;;;;13.35;9.57;;;10.40;62.30;;;;;;5129877;27;20031;-63
2022/05/02 04:37:45;;;;;;;14.43;10.02;;;10.40;62.40;;;;;;5116077;27;20062;-63
2022/05/02 04:40:10;;;;;;;14.82;9.27;;;10.40;62.50;;;;;;5121175;27;20023;-64
2022/05/02 04:42:38;;;;;;;14.38;9.63;;;10.40;62.50;;;;;;5118010;27;20136;-64
2022/05/02 04:45:04;;;;;;;14.07;9.35;;;10.40;62.60;;;;;;5124248;27;20038;-64
2022/05/02 04:47:29;;;;;;;13.07;8.85;;;10.40;62.60;;;;;;5117445;28;20024;-64
2022/05/02 04:49:55;;;;;;;12.95;9.10;;;10.50;62.60;;;;;;5131994;27;20466;-64
2022/05/02 04:52:20;;;;;;;14.40;9.38;;;10.40;62.60;;;;;;5125387;27;20031;-64
2022/05/02 04:54:46;;;;;;;13.52;8.82;;;10.40;62.60;;;;;;5130603;27;20480;-64
2022/05/02 04:57:12;;;;;;;13.63;9.15;;;10.50;62.70;;;;;;5124697;27;20456;-64
2022/05/02 04:59:37;;;;;;;13.82;9.35;;;10.50;62.70;;;;;;5114453;28;20371;-64
2022/05/02 05:02:04;;;;;;;12.57;8.85;;;10.50;62.70;;;;;;5114799;28;20445;-64
2022/05/02 05:04:29;;;;;;;13.75;9.45;;;10.50;62.80;;;;;;5113459;28;20043;-64
2022/05/02 05:06:55;;;;;;;14.52;10.02;;;10.50;62.70;;;;;;5119007;28;20115;-64
2022/05/02 05:09:21;;;;;;;13.02;9.05;;;10.60;62.70;;;;;;5123564;28;20119;-64
2022/05/02 05:11:58;;;;;;;13.68;9.13;;;10.60;62.70;;;;;;5118832;28;20065;-64
2022/05/02 05:17:22;;;;;;;13.45;9.68;;;10.70;62.70;;;;;;5120324;28;20027;-64
2022/05/02 05:20:02;;;;;;;13.15;9.45;;;10.80;62.70;;;;;;5135672;27;20084;-64
2022/05/02 05:23:00;;;;;;;13.63;9.32;;;10.80;62.70;;;;;;5117251;27;20420;-64
2022/05/02 05:25:32;;;;;;;12.30;9.02;;;10.90;62.80;;;;;;5121992;28;20432;-64
2022/05/02 05:28:13;;;;;;;14.40;9.18;;;10.90;62.50;;;;;;5123999;27;20132;-63
2022/05/02 05:30:44;;;;;;;14.05;8.98;;;11.10;62.50;;;;;;5126339;28;20046;-64
2022/05/02 05:33:51;;;;;;;14.73;9.20;;;11.20;62.30;;;;;;5122216;27;20051;-63
2022/05/02 05:36:52;;;;;;;14.70;8.23;;;11.40;62.00;;;;;;5113644;28;20024;-63
2022/05/02 05:39:36;;;;;;;14.05;8.15;;;11.60;61.60;;;;;;5131035;28;20031;-64
2022/05/02 05:42:30;;;;;;;12.15;8.45;;;11.80;61.10;;;;;;5114692;27;20039;-64
2022/05/02 05:45:15;;;;;;;12.93;8.73;;;12.10;60.80;;;;;;5112951;28;20054;-64
2022/05/02 05:48:11;;;;;;;12.50;8.15;;;12.30;60.40;;;;;;5129668;27;20056;-64
2022/05/02 05:50:54;;;;;;;12.38;8.18;;;12.50;60.10;;;;;;5115120;28;20036;-64
2022/05/02 05:53:49;;;;;;;12.27;8.05;;;12.90;59.70;;;;;;5131642;28;20126;-64
2022/05/02 05:56:35;;;;;;;12.23;7.72;;;13.50;58.90;;;;;;5109041;28;20036;-64
2022/05/02 05:59:19;;;;;;;14.25;8.30;;;14.20;57.90;;;;;;5117978;27;20031;-64
2022/05/02 06:02:08;;;;;;;12.23;7.43;;;14.70;57.00;;;;;;5118435;28;20046;-64
2022/05/02 06:04:36;;;;;;;12.57;7.60;;;14.90;56.40;;;;;;5128193;27;20027;-64
2022/05/02 06:07:03;;;;;;;10.52;7.32;;;15.10;56.10;;;;;;5118212;28;20057;-64
2022/05/02 06:09:30;;;;;;;11.68;8.30;;;15.20;55.60;;;;;;5116696;27;20156;-65
2022/05/02 06:11:57;;;;;;;13.93;7.95;;;15.30;55.40;;;;;;5118179;27;20118;-65
2022/05/02 06:14:30;;;;;;;13.25;7.53;;;15.30;55.10;;;;;;5126316;27;20060;-64
2022/05/02 06:19:43;;;;;;;10.77;7.78;;;15.40;55.00;;;;;;5127783;27;20073;-64
2022/05/02 06:22:11;;;;;;;11.90;7.50;;;15.50;54.80;;;;;;5131891;27;20329;-64
2022/05/02 06:24:39;;;;;;;10.18;6.90;;;15.60;54.60;;;;;;5135788;27;20050;-65
2022/05/02 06:27:06;;;;;;;11.68;6.85;;;15.70;54.30;;;;;;5125917;27;20349;-65
2022/05/02 06:29:35;;;;;;;12.60;7.30;;;15.80;53.90;;;;;;5124893;27;20109;-65
2022/05/02 06:32:03;;;;;;;9.63;6.57;;;15.90;53.60;;;;;;5117844;28;20043;-65
2022/05/02 06:34:30;;;;;;;13.77;7.05;;;16.00;53.40;;;;;;5117941;27;20443;-64
2022/05/02 06:37:31;;;;;;;12.43;7.00;;;16.10;53.20;;;;;;5117867;27;20024;-65
2022/05/02 06:40:32;;;;;;;11.00;6.60;;;16.20;52.90;;;;;;5128963;27;20032;-65
2022/05/02 06:43:17;;;;;;;10.43;5.85;;;16.40;52.40;;;;;;5110131;28;20051;-64
2022/05/02 06:46:03;;;;;;;9.27;5.97;;;16.60;52.20;;;;;;5117651;28;20028;-65
2022/05/02 06:48:41;;;;;;;9.90;6.18;;;16.70;51.80;;;;;;5130348;27;20028;-62
2022/05/02 06:51:15;;;;;;;10.38;6.00;;;16.90;51.30;;;;;;5125455;27;20026;-62
2022/05/02 06:54:10;;;;;;;11.65;6.25;;;17.10;50.90;;;;;;5137114;27;20115;-62
2022/05/02 06:56:48;;;;;;;12.32;6.00;;;17.20;50.30;;;;;;5117089;27;20058;-62
2022/05/02 06:59:38;;;;;;;12.73;6.80;;;17.40;49.90;;;;;;5136649;27;20379;-62
2022/05/02 07:02:13;;;;;;;10.15;5.55;;;17.50;49.30;;;;;;5125504;27;20088;-65
2022/05/02 07:04:52;;;;;;;9.13;5.10;;;17.70;48.80;;;;;;5116778;28;20032;-65
2022/05/02 07:07:20;;;;;;;8.88;5.07;;;17.80;48.30;;;;;;5117627;27;20389;-64
2022/05/02 07:09:50;;;;;;;9.00;5.75;;;17.90;48.10;;;;;;5133177;27;20113;-65
2022/05/02 07:12:18;;;;;;;10.70;5.68;;;18.00;47.80;;;;;;5125916;27;20403;-64
2022/05/02 07:14:58;;;;;;;8.10;4.65;;;18.10;47.40;;;;;;5121042;27;20023;-65
2022/05/02 07:17:46;;;;;;;9.15;4.60;;;18.30;47.00;;;;;;5126651;27;20023;-65
2022/05/02 07:20:18;;;;;;;8.48;4.88;;;18.40;46.40;;;;;;5122330;27;20407;-64
2022/05/02 07:22:54;;;;;;;9.88;4.68;;;18.60;46.20;;;;;;5132871;27;20032;-65
2022/05/02 07:25:21;;;;;;;7.95;4.95;;;18.70;45.60;;;;;;5123937;27;20031;-65
2022/05/02 07:27:55;;;;;;;8.68;4.88;;;18.80;45.30;;;;;;5129624;27;20031;-65
2022/05/02 07:30:22;;;;;;;12.27;5.20;;;18.90;45.00;;;;;;5135240;27;20073;-66
2022/05/02 07:32:51;;;;;;;9.02;4.93;;;19.00;44.70;;;;;;5135783;27;20122;-66
2022/05/02 07:35:17;;;;;;;9.20;5.28;;;19.10;44.40;;;;;;5130520;27;20051;-65
2022/05/02 07:37:43;;;;;;;10.05;5.28;;;19.20;44.10;;;;;;5127435;27;20023;-66
2022/05/02 07:40:12;;;;;;;7.50;4.72;;;19.40;43.90;;;;;;5118996;27;20102;-66
2022/05/02 07:42:39;;;;;;;8.63;5.00;;;19.50;43.70;;;;;;5116612;27;20084;-66
2022/05/02 07:45:10;;;;;;;9.23;4.97;;;19.60;43.50;;;;;;5117070;27;20082;-66
2022/05/02 07:47:36;;;;;;;8.82;4.90;;;19.60;43.10;;;;;;5116579;28;20313;-66
2022/05/02 07:50:05;;;;;;;9.88;4.85;;;19.80;42.90;;;;;;5126676;27;20031;-63
2022/05/02 07:52:34;;;;;;;11.05;5.28;;;19.80;42.80;;;;;;5126800;27;20352;-63
2022/05/02 07:55:01;;;;;;;9.27;5.75;;;20.00;42.80;;;;;;5117252;27;20056;-63
2022/05/02 07:57:28;;;;;;;9.30;5.35;;;20.10;42.40;;;;;;5115610;28;20084;-63
2022/05/02 08:00:00;;;;;;;8.27;5.32;;;20.20;42.10;;;;;;5119475;27;20027;-64
2022/05/02 08:02:26;;;;;;;;;;;20.20;41.60;;;;;;5119817;27;20039;-64
2022/05/02 08:04:55;;;;;;;9.30;4.80;;;20.20;41.90;;;;;;5117563;27;19954;-63
2022/05/02 08:07:43;;;;;;;8.88;5.05;;;20.30;41.80;;;;;;5117069;27;20113;-63
2022/05/02 08:10:45;;;;;;;8.30;4.47;;;20.30;41.40;;;;;;5125792;27;20036;-62
2022/05/02 08:13:38;;;;;;;8.40;4.85;;;20.40;41.10;;;;;;5118433;27;20424;-63
2022/05/02 08:16:10;;;;;;;9.75;5.30;;;20.50;41.00;;;;;;5121863;27;20031;-62
2022/05/02 08:19:01;;;;;;;8.50;5.07;;;20.50;40.90;;;;;;5117792;27;20023;-62
2022/05/02 08:21:29;;;;;;;8.98;4.88;;;20.60;40.60;;;;;;5115340;28;20451;-62
2022/05/02 08:27:20;;;;;;;10.32;5.22;;;20.90;40.30;;;;;;5115817;27;20146;-65
2022/05/02 08:29:59;;;;;;;9.30;5.60;;;21.00;40.00;;;;;;5114430;28;20089;-63
2022/05/02 08:32:56;;;;;;;9.40;5.45;;;21.00;40.00;;;;;;5115487;28;20118;-63
2022/05/02 08:36:01;;;;;;;8.70;4.55;;;21.10;39.70;;;;;;5115731;28;20392;-64
2022/05/02 08:39:02;;;;;;;7.90;4.80;;;21.20;39.60;;;;;;5115504;28;20030;-63
2022/05/02 08:41:33;;;;;;;7.93;4.70;;;21.30;39.20;;;;;;5103616;28;20069;-63
2022/05/02 08:44:33;;;;;;;9.15;4.88;;;21.40;39.20;;;;;;5114336;28;20411;-63
2022/05/02 08:47:23;;;;;;;10.65;5.65;;;21.40;39.00;;;;;;5115867;28;20059;-64
2022/05/02 08:50:13;;;;;;;7.90;4.95;;;21.50;38.60;;;;;;5133095;27;20332;-64
2022/05/02 08:53:06;;;;;;;8.57;4.93;;;21.50;38.30;;;;;;5133835;27;20031;-64
2022/05/02 08:56:08;;;;;;;11.25;5.22;;;21.60;38.20;;;;;;5135887;27;20118;-63
2022/05/02 08:59:05;;;;;;;10.02;5.85;;;21.70;38.00;;;;;;5135445;27;20034;-63
2022/05/02 09:01:49;;;;;;;9.20;6.00;;;21.70;37.90;;;;;;5136234;27;20118;-63
2022/05/02 09:04:24;;;;;;;8.55;5.57;;;21.70;37.80;;;;;;5136239;27;20055;-63
2022/05/02 09:07:18;;;;;;;9.07;6.00;;;21.70;37.60;;;;;;5132700;27;20110;-63
2022/05/02 09:10:13;;;;;;;8.30;5.43;;;21.70;37.60;;;;;;5115341;28;20076;-64
2022/05/02 09:13:13;;;;;;;9.60;5.55;;;21.80;37.40;;;;;;5114303;28;20035;-63
2022/05/02 09:16:12;;;;;;;10.05;6.30;;;21.90;37.10;;;;;;5114412;28;20505;-63
2022/05/02 09:18:43;;;;;;;8.98;5.57;;;21.90;37.00;;;;;;5115412;28;20047;-63
2022/05/02 09:21:28;;;;;;;9.38;5.95;;;21.90;37.00;;;;;;5115022;28;20036;-63
2022/05/02 09:24:32;;;;;;;9.82;6.30;;;22.00;36.90;;;;;;5114116;28;20106;-63
2022/05/02 09:27:14;;;;;;;10.15;6.32;;;22.10;36.70;;;;;;5118944;28;20091;-63
2022/05/02 09:29:57;;;;;;;10.60;7.20;;;22.00;36.40;;;;;;5135105;27;20039;-64
2022/05/02 09:32:51;;;;;;;10.60;6.18;;;21.60;36.70;;;;;;5135679;27;20035;-64
2022/05/02 09:35:25;;;;;;;9.32;5.55;;;21.60;36.80;;;;;;5123986;27;20099;-63
2022/05/02 09:37:55;;;;;;;9.15;5.50;;;21.80;36.80;;;;;;5137290;27;20028;-63
2022/05/02 09:40:29;;;;;;;10.35;5.95;;;21.90;36.60;;;;;;5133536;27;20110;-63
2022/05/02 09:49:33;;;;;;;14.70;8.40;;;22.10;36.50;;;;;;5135218;27;20043;-63
2022/05/02 09:49:37;;;;;;;9.02;4.97;;;22.50;36.00;;;;;;5124280;27;20067;-64
2022/05/02 09:52:03;;;;;;;8.60;4.70;;;22.70;36.00;;;;;;5124314;27;20039;-64
2022/05/02 09:57:57;;;;;;;7.63;4.90;;;22.90;35.40;;;;;;5125746;27;20047;-64
2022/05/02 10:01:35;;;;;;;8.60;5.75;;;23.10;35.50;;;;;;5131287;27;20031;-64
2022/05/02 10:03:47;;;;;;;9.80;5.55;;;23.20;35.20;;;;;;5119013;27;20040;-65
2022/05/02 10:06:29;;;;;;;10.90;5.60;;;23.30;35.10;;;;;;5118208;27;20036;-65
2022/05/02 10:09:14;;;;;;;9.30;5.43;;;23.40;34.80;;;;;;5135648;27;20038;-65
2022/05/02 10:11:58;;;;;;;8.52;5.88;;;23.40;34.70;;;;;;5122579;27;20080;-66
2022/05/02 10:14:31;;;;;;;12.02;5.70;;;23.50;34.50;;;;;;5130541;27;20036;-67
2022/05/02 10:17:13;;;;;;;10.45;5.82;;;23.50;34.50;;;;;;5121975;27;20034;-66
2022/05/02 10:20:00;;;;;;;10.30;6.13;;;23.60;34.30;;;;;;5130713;27;20032;-67
2022/05/02 10:22:46;;;;;;;9.45;5.50;;;23.60;34.10;;;;;;5125512;27;20445;-65
2022/05/02 10:25:36;;;;;;;10.23;6.05;;;23.70;34.10;;;;;;5126419;27;20028;-64
2022/05/02 10:28:36;;;;;;;11.20;6.30;;;23.70;33.80;;;;;;5100405;28;20129;-64
2022/05/02 10:31:09;;;;;;;9.25;5.25;;;23.70;33.70;;;;;;5106175;28;20364;-65
2022/05/02 10:33:45;;;;;;;9.65;6.15;;;23.70;33.80;;;;;;5133167;27;20118;-64
2022/05/02 10:36:12;;;;;;;9.20;5.93;;;23.70;33.60;;;;;;5119260;27;20464;-64
2022/05/02 10:38:51;;;;;;;10.25;6.07;;;23.70;33.60;;;;;;5117800;28;20023;-64
2022/05/02 10:41:23;;;;;;;9.23;5.90;;;23.70;33.40;;;;;;5136116;27;20098;-65
2022/05/02 10:43:53;;;;;;;9.00;5.80;;;23.60;33.50;;;;;;5136293;27;20026;-64
2022/05/02 10:46:21;;;;;;;10.02;6.25;;;23.60;33.60;;;;;;5132211;27;20080;-65
2022/05/02 10:49:02;;;;;;;8.73;5.57;;;23.70;33.70;;;;;;5143800;27;20031;-66
2022/05/02 10:51:54;;;;;;;8.65;5.07;;;23.80;33.60;;;;;;5130490;27;20028;-65
2022/05/02 10:54:38;;;;;;;7.75;5.13;;;23.90;33.30;;;;;;5116857;27;20314;-64
2022/05/02 10:57:17;;;;;;;8.88;5.07;;;23.90;33.10;;;;;;5119059;27;20039;-65
2022/05/02 10:59:45;;;;;;;9.10;5.43;;;23.90;33.10;;;;;;5115644;27;20027;-64
2022/05/02 11:02:32;;;;;;;10.55;5.78;;;23.90;33.10;;;;;;5116733;27;20034;-65
2022/05/02 11:05:10;;;;;;;8.88;5.53;;;23.90;32.90;;;;;;5120331;27;20035;-64
2022/05/02 11:07:53;;;;;;;8.85;5.53;;;23.90;33.00;;;;;;5141122;27;20035;-64
2022/05/02 11:10:21;;;;;;;8.55;5.45;;;23.80;33.10;;;;;;5122096;27;20034;-64
2022/05/02 11:13:07;;;;;;;8.30;5.50;;;23.70;33.20;;;;;;5132922;27;20050;-64
2022/05/02 11:15:53;;;;;;;11.18;5.53;;;23.70;33.10;;;;;;5123291;27;20023;-64
2022/05/02 11:21:52;;;;;;;9.15;5.38;;;23.80;33.30;;;;;;5129549;27;20047;-65
2022/05/02 11:24:47;;;;;;;8.48;5.22;;;23.80;33.10;;;;;;5127146;27;20063;-65
2022/05/02 11:27:31;;;;;;;9.25;5.28;;;23.80;33.00;;;;;;5119595;27;20039;-64
2022/05/02 11:30:08;;;;;;;9.93;5.38;;;23.70;33.10;;;;;;5121664;27;20040;-68
2022/05/02 11:33:03;;;;;;;8.63;5.60;;;23.70;33.20;;;;;;5115278;27;20035;-64
2022/05/02 11:35:31;;;;;;;8.70;5.28;;;23.60;33.10;;;;;;5116726;28;20032;-65
2022/05/02 11:38:19;;;;;;;10.32;6.07;;;23.70;33.30;;;;;;5117913;27;20369;-64
2022/05/02 11:40:47;;;;;;;8.88;5.82;;;23.70;33.10;;;;;;5131771;27;20035;-64
2022/05/02 11:43:22;;;;;;;9.23;6.22;;;23.60;33.00;;;;;;5115759;27;20097;-65
2022/05/02 11:46:05;;;;;;;8.63;5.32;;;23.60;32.80;;;;;;5118166;27;20063;-64
2022/05/02 11:49:03;;;;;;;9.05;5.15;;;23.60;32.80;;;;;;5118639;27;20389;-63
2022/05/02 11:51:41;;;;;;;8.82;5.60;;;23.50;32.80;;;;;;5118744;27;20456;-63
2022/05/02 11:54:28;;;;;;;8.88;5.20;;;23.50;33.10;;;;;;5116186;28;20110;-63
2022/05/02 11:56:55;;;;;;;8.63;5.63;;;23.50;33.20;;;;;;5121976;27;20043;-63
2022/05/02 11:59:23;;;;;;;8.05;5.15;;;23.50;33.20;;;;;;5133289;27;20026;-64
2022/05/02 12:02:01;;;;;;;9.48;4.88;;;23.50;33.00;;;;;;5125458;27;20034;-63
2022/05/02 12:04:31;;;;;;;8.07;5.00;;;23.50;33.00;;;;;;5135697;27;20522;-64
2022/05/02 12:07:04;;;;;;;8.90;5.15;;;23.50;33.00;;;;;;5129285;27;20440;-63
2022/05/02 12:09:34;;;;;;;8.30;5.03;;;23.40;32.90;;;;;;5122423;27;20107;-63
2022/05/02 12:12:07;;;;;;;9.50;5.68;;;23.30;33.10;;;;;;5123939;27;20030;-64
2022/05/02 12:14:33;;;;;;;9.57;5.90;;;23.20;33.00;;;;;;5114794;28;20038;-63
2022/05/02 12:17:08;;;;;;;9.98;5.82;;;23.10;33.30;;;;;;5120178;27;20030;-63
2022/05/02 12:19:36;;;;;;;10.25;5.60;;;23.10;33.20;;;;;;5123853;27;20027;-64
2022/05/02 12:22:14;;;;;;;10.15;6.45;;;23.00;33.40;;;;;;5116923;27;20077;-64
2022/05/02 12:24:41;;;;;;;8.20;5.28;;;22.90;33.30;;;;;;5147233;27;20038;-64
2022/05/02 12:27:08;;;;;;;9.65;5.90;;;22.80;33.30;;;;;;5145834;27;20035;-64
2022/05/02 12:29:36;;;;;;;9.55;6.60;;;22.70;34.00;;;;;;5114832;27;20069;-64
2022/05/02 12:32:05;;;;;;;10.40;5.75;;;22.60;34.20;;;;;;5120952;27;20119;-64
2022/05/02 12:34:43;;;;;;;7.60;5.28;;;22.50;33.70;;;;;;5123488;27;20303;-64
2022/05/02 12:37:30;;;;;;;8.88;6.07;;;22.50;34.00;;;;;;5130355;27;20020;-64
2022/05/02 12:40:11;;;;;;;8.98;5.72;;;22.50;33.90;;;;;;5099694;28;20051;-64
2022/05/02 12:42:39;;;;;;;9.20;5.40;;;22.40;33.90;;;;;;5121391;27;20031;-64
2022/05/02 12:45:08;;;;;;;9.65;5.38;;;22.40;34.00;;;;;;5126287;27;20027;-64
2022/05/02 12:47:41;;;;;;;9.35;6.60;;;22.30;34.10;;;;;;5132454;27;20122;-63
2022/05/02 12:50:12;;;;;;;8.57;5.30;;;22.30;34.10;;;;;;5126305;27;20027;-63
2022/05/02 12:52:46;;;;;;;9.45;5.90;;;22.10;34.30;;;;;;5114009;28;20495;-63
2022/05/02 12:55:14;;;;;;;7.65;4.85;;;22.10;34.50;;;;;;5098951;28;20030;-64
2022/05/02 13:00:40;;;;;;;7.82;4.50;;;22.20;34.60;;;;;;5116010;27;20030;-63
2022/05/02 13:03:27;;;;;;;7.68;4.70;;;22.10;34.90;;;;;;5096542;28;20032;-64
2022/05/02 13:06:07;;;;;;;8.30;5.18;;;22.00;34.80;;;;;;5132575;27;20031;-63
2022/05/02 13:08:34;;;;;;;10.02;5.25;;;21.90;35.00;;;;;;5119673;27;20108;-63
2022/05/02 13:11:21;;;;;;;9.07;5.82;;;21.80;35.10;;;;;;5098126;28;20050;-63
2022/05/02 13:13:52;;;;;;;8.18;5.15;;;21.60;35.00;;;;;;5120781;27;20023;-63
2022/05/02 13:16:25;;;;;;;8.90;5.45;;;21.40;35.20;;;;;;5116157;28;20115;-63
2022/05/02 13:18:51;;;;;;;7.97;5.00;;;21.30;35.20;;;;;;5114236;28;20031;-64
2022/05/02 13:21:19;;;;;;;10.18;4.85;;;21.30;35.30;;;;;;5129277;28;20050;-64
2022/05/02 13:23:49;;;;;;;8.48;4.80;;;21.20;35.50;;;;;;5112455;28;20398;-64
2022/05/02 13:26:18;;;;;;;;;;;21.10;35.80;;;;;;5131652;28;20031;-65
2022/05/02 13:29:21;;;;;;;9.65;5.60;;;21.10;36.00;;;;;;5126274;28;20393;-64
2022/05/02 13:32:03;;;;;;;7.35;4.72;;;21.00;35.70;;;;;;5123066;28;20055;-64
2022/05/02 13:34:39;;;;;;;8.43;5.55;;;21.00;35.60;;;;;;5126766;28;20096;-64
2022/05/02 13:37:22;;;;;;;8.00;5.22;;;20.90;35.40;;;;;;5134027;28;20451;-64
2022/05/02 13:40:11;;;;;;;7.82;4.85;;;20.90;35.40;;;;;;5114143;28;20035;-64